sensor_id;sensor_type;location;lat;lon;timestamp;temperature;humidity
20155;DHT22;10238;49.556;10.956;2023-12-20T00:01:57;5.30;99.90
20155;DHT22;10238;49.556;10.956;2023-12-20T00:04:44;5.30;99.90
20155;DHT22;10238;49.556;10.956;2023-12-20T00:07:32;5.30;99.90
20155;DHT22;10238;49.556;10.956;2023-12-20T00:10:20;5.30;99.90
20155;DHT22;10238;49.556;10.956;2023-12-20T00:13:08;5.20;99.90
20155;DHT22;10238;49.556;10.956;2023-12-20T00:15:55;5.30;99.90
20155;DHT22;10238;49.556;10.956;2023-12-20T00:18:44;5.20;99.90
20155;DHT22;10238;49.556;10.956;2023-12-20T00:21:31;5.30;99.90
20155;DHT22;10238;49.556;10.956;2023-12-20T00:24:19;5.20;99.90
20155;DHT22;10238;49.556;10.956;2023-12-20T00:27:06;5.20;99.90
20155;DHT22;10238;49.556;10.956;2023-12-20T00:29:54;5.20;99.90
20155;DHT22;10238;49.556;10.956;2023-12-20T00:32:41;5.20;99.90
20155;DHT22;10238;49.556;10.956;2023-12-20T00:35:33;5.20;99.90
20155;DHT22;10238;49.556;10.956;2023-12-20T00:38:21;5.20;99.90
20155;DHT22;10238;49.556;10.956;2023-12-20T00:41:09;5.20;99.90
20155;DHT22;10238;49.556;10.956;2023-12-20T00:43:56;5.20;99.90
20155;DHT22;10238;49.556;10.956;2023-12-20T00:46:44;5.20;99.90
20155;DHT22;10238;49.556;10.956;2023-12-20T00:49:31;5.30;99.90
20155;DHT22;10238;49.556;10.956;2023-12-20T00:52:20;5.20;99.90
20155;DHT22;10238;49.556;10.956;2023-12-20T00:55:09;5.20;99.90
20155;DHT22;10238;49.556;10.956;2023-12-20T00:57:56;5.20;99.90
20155;DHT22;10238;49.556;10.956;2023-12-20T01:00:45;5.20;99.90
20155;DHT22;10238;49.556;10.956;2023-12-20T01:03:33;5.20;99.90
20155;DHT22;10238;49.556;10.956;2023-12-20T01:06:20;5.20;99.90
20155;DHT22;10238;49.556;10.956;2023-12-20T01:09:09;5.20;99.90
20155;DHT22;10238;49.556;10.956;2023-12-20T01:11:57;5.20;99.90
20155;DHT22;10238;49.556;10.956;2023-12-20T01:14:44;5.30;99.90
20155;DHT22;10238;49.556;10.956;2023-12-20T01:17:32;5.30;99.90
20155;DHT22;10238;49.556;10.956;2023-12-20T01:20:19;5.20;99.90
20155;DHT22;10238;49.556;10.956;2023-12-20T01:23:07;5.20;99.90
20155;DHT22;10238;49.556;10.956;2023-12-20T01:25:56;5.20;99.90
20155;DHT22;10238;49.556;10.956;2023-12-20T01:28:45;5.20;99.90
20155;DHT22;10238;49.556;10.956;2023-12-20T01:31:33;5.20;99.90
20155;DHT22;10238;49.556;10.956;2023-12-20T01:34:20;5.20;99.90
20155;DHT22;10238;49.556;10.956;2023-12-20T01:37:08;5.20;99.90
20155;DHT22;10238;49.556;10.956;2023-12-20T01:39:55;5.20;99.90
20155;DHT22;10238;49.556;10.956;2023-12-20T01:42:44;5.20;99.90
20155;DHT22;10238;49.556;10.956;2023-12-20T01:45:32;5.10;99.90
20155;DHT22;10238;49.556;10.956;2023-12-20T01:48:20;5.10;99.90
20155;DHT22;10238;49.556;10.956;2023-12-20T01:51:08;5.10;99.90
20155;DHT22;10238;49.556;10.956;2023-12-20T01:53:57;5.10;99.90
20155;DHT22;10238;49.556;10.956;2023-12-20T01:56:47;5.10;99.90
20155;DHT22;10238;49.556;10.956;2023-12-20T01:59:39;5.10;99.90
20155;DHT22;10238;49.556;10.956;2023-12-20T02:02:28;5.10;99.90
20155;DHT22;10238;49.556;10.956;2023-12-20T02:05:17;5.10;99.90
20155;DHT22;10238;49.556;10.956;2023-12-20T02:08:05;5.00;99.90
20155;DHT22;10238;49.556;10.956;2023-12-20T02:10:54;5.00;99.90
20155;DHT22;10238;49.556;10.956;2023-12-20T02:13:42;5.00;99.90
20155;DHT22;10238;49.556;10.956;2023-12-20T02:16:31;5.00;99.90
20155;DHT22;10238;49.556;10.956;2023-12-20T02:19:20;5.00;99.90
20155;DHT22;10238;49.556;10.956;2023-12-20T02:22:10;5.00;99.90
20155;DHT22;10238;49.556;10.956;2023-12-20T02:24:58;4.90;99.90
20155;DHT22;10238;49.556;10.956;2023-12-20T02:27:45;4.90;99.90
20155;DHT22;10238;49.556;10.956;2023-12-20T02:30:34;4.80;99.90
20155;DHT22;10238;49.556;10.956;2023-12-20T02:33:21;4.80;99.90
20155;DHT22;10238;49.556;10.956;2023-12-20T02:36:10;4.80;99.90
20155;DHT22;10238;49.556;10.956;2023-12-20T02:38:59;4.80;99.90
20155;DHT22;10238;49.556;10.956;2023-12-20T02:41:46;4.70;99.90
20155;DHT22;10238;49.556;10.956;2023-12-20T02:44:34;4.70;99.90
20155;DHT22;10238;49.556;10.956;2023-12-20T02:47:22;4.70;99.90
20155;DHT22;10238;49.556;10.956;2023-12-20T02:50:09;4.70;99.90
20155;DHT22;10238;49.556;10.956;2023-12-20T02:52:57;4.70;99.90
20155;DHT22;10238;49.556;10.956;2023-12-20T02:55:46;4.70;99.90
20155;DHT22;10238;49.556;10.956;2023-12-20T02:58:34;4.60;99.90
20155;DHT22;10238;49.556;10.956;2023-12-20T03:01:21;4.60;99.90
20155;DHT22;10238;49.556;10.956;2023-12-20T03:04:09;4.50;99.90
20155;DHT22;10238;49.556;10.956;2023-12-20T03:06:56;4.50;99.90
20155;DHT22;10238;49.556;10.956;2023-12-20T03:09:44;4.50;99.90
20155;DHT22;10238;49.556;10.956;2023-12-20T03:12:52;4.50;99.90
20155;DHT22;10238;49.556;10.956;2023-12-20T03:15:40;4.50;99.90
20155;DHT22;10238;49.556;10.956;2023-12-20T03:18:27;4.50;99.90
20155;DHT22;10238;49.556;10.956;2023-12-20T03:21:15;4.50;99.90
20155;DHT22;10238;49.556;10.956;2023-12-20T03:24:03;4.40;99.90
20155;DHT22;10238;49.556;10.956;2023-12-20T03:26:51;4.40;99.90
20155;DHT22;10238;49.556;10.956;2023-12-20T03:29:39;4.40;99.90
20155;DHT22;10238;49.556;10.956;2023-12-20T03:32:27;4.40;99.90
20155;DHT22;10238;49.556;10.956;2023-12-20T03:35:14;4.30;99.90
20155;DHT22;10238;49.556;10.956;2023-12-20T03:38:02;4.40;99.90
20155;DHT22;10238;49.556;10.956;2023-12-20T03:40:50;4.30;99.90
20155;DHT22;10238;49.556;10.956;2023-12-20T03:43:38;4.30;99.90
20155;DHT22;10238;49.556;10.956;2023-12-20T03:46:26;4.30;99.90
20155;DHT22;10238;49.556;10.956;2023-12-20T03:49:14;4.30;99.90
20155;DHT22;10238;49.556;10.956;2023-12-20T03:52:01;4.30;99.90
20155;DHT22;10238;49.556;10.956;2023-12-20T03:54:49;4.30;99.90
20155;DHT22;10238;49.556;10.956;2023-12-20T03:57:37;4.30;99.90
20155;DHT22;10238;49.556;10.956;2023-12-20T04:00:24;4.30;99.90
20155;DHT22;10238;49.556;10.956;2023-12-20T04:03:13;4.30;99.90
20155;DHT22;10238;49.556;10.956;2023-12-20T04:06:01;4.20;99.90
20155;DHT22;10238;49.556;10.956;2023-12-20T04:08:48;4.30;99.90
20155;DHT22;10238;49.556;10.956;2023-12-20T04:11:36;4.20;99.90
20155;DHT22;10238;49.556;10.956;2023-12-20T04:14:24;4.20;99.90
20155;DHT22;10238;49.556;10.956;2023-12-20T04:17:12;4.20;99.90
20155;DHT22;10238;49.556;10.956;2023-12-20T04:20:01;4.20;99.90
20155;DHT22;10238;49.556;10.956;2023-12-20T04:22:48;4.20;99.90
20155;DHT22;10238;49.556;10.956;2023-12-20T04:25:36;4.20;99.90
20155;DHT22;10238;49.556;10.956;2023-12-20T04:28:24;4.20;99.90
20155;DHT22;10238;49.556;10.956;2023-12-20T04:31:11;4.20;99.90
20155;DHT22;10238;49.556;10.956;2023-12-20T04:33:59;4.20;99.90
20155;DHT22;10238;49.556;10.956;2023-12-20T04:36:48;4.10;99.90
20155;DHT22;10238;49.556;10.956;2023-12-20T04:39:36;4.10;99.90
20155;DHT22;10238;49.556;10.956;2023-12-20T04:42:23;4.20;99.90
20155;DHT22;10238;49.556;10.956;2023-12-20T04:45:11;4.20;99.90
20155;DHT22;10238;49.556;10.956;2023-12-20T04:48:00;4.10;99.90
20155;DHT22;10238;49.556;10.956;2023-12-20T04:50:49;4.10;99.90
20155;DHT22;10238;49.556;10.956;2023-12-20T04:53:38;4.10;99.90
20155;DHT22;10238;49.556;10.956;2023-12-20T04:56:25;4.10;99.90
20155;DHT22;10238;49.556;10.956;2023-12-20T04:59:13;4.10;99.90
20155;DHT22;10238;49.556;10.956;2023-12-20T05:02:00;4.10;99.90
20155;DHT22;10238;49.556;10.956;2023-12-20T05:04:48;4.10;99.90
20155;DHT22;10238;49.556;10.956;2023-12-20T05:07:39;4.10;99.90
20155;DHT22;10238;49.556;10.956;2023-12-20T05:10:29;4.10;99.90
20155;DHT22;10238;49.556;10.956;2023-12-20T05:13:17;4.10;99.90
20155;DHT22;10238;49.556;10.956;2023-12-20T05:16:05;4.10;99.90
20155;DHT22;10238;49.556;10.956;2023-12-20T05:18:53;4.10;99.90
20155;DHT22;10238;49.556;10.956;2023-12-20T05:21:42;4.10;99.90
20155;DHT22;10238;49.556;10.956;2023-12-20T05:24:29;4.10;99.90
20155;DHT22;10238;49.556;10.956;2023-12-20T05:27:18;4.00;99.90
20155;DHT22;10238;49.556;10.956;2023-12-20T05:30:07;4.00;99.90
20155;DHT22;10238;49.556;10.956;2023-12-20T05:32:54;4.00;99.90
20155;DHT22;10238;49.556;10.956;2023-12-20T05:35:42;4.10;99.90
20155;DHT22;10238;49.556;10.956;2023-12-20T05:38:30;4.00;99.90
20155;DHT22;10238;49.556;10.956;2023-12-20T05:41:17;4.00;99.90
20155;DHT22;10238;49.556;10.956;2023-12-20T05:44:06;4.00;99.90
20155;DHT22;10238;49.556;10.956;2023-12-20T05:46:53;4.00;99.90
20155;DHT22;10238;49.556;10.956;2023-12-20T05:49:41;4.00;99.90
20155;DHT22;10238;49.556;10.956;2023-12-20T05:52:29;4.00;99.90
20155;DHT22;10238;49.556;10.956;2023-12-20T05:55:18;4.00;99.90
20155;DHT22;10238;49.556;10.956;2023-12-20T05:58:05;4.00;99.90
20155;DHT22;10238;49.556;10.956;2023-12-20T06:00:54;4.00;99.90
20155;DHT22;10238;49.556;10.956;2023-12-20T06:03:43;4.10;99.90
20155;DHT22;10238;49.556;10.956;2023-12-20T06:06:31;4.10;99.90
20155;DHT22;10238;49.556;10.956;2023-12-20T06:09:19;4.10;99.90
20155;DHT22;10238;49.556;10.956;2023-12-20T06:12:07;4.00;99.90
20155;DHT22;10238;49.556;10.956;2023-12-20T06:14:55;4.10;99.90
20155;DHT22;10238;49.556;10.956;2023-12-20T06:17:45;4.10;99.90
20155;DHT22;10238;49.556;10.956;2023-12-20T06:20:35;4.10;99.90
20155;DHT22;10238;49.556;10.956;2023-12-20T06:23:23;4.10;99.90
20155;DHT22;10238;49.556;10.956;2023-12-20T06:26:10;4.10;99.90
20155;DHT22;10238;49.556;10.956;2023-12-20T06:28:58;4.10;99.90
20155;DHT22;10238;49.556;10.956;2023-12-20T06:31:45;4.10;99.90
20155;DHT22;10238;49.556;10.956;2023-12-20T06:34:34;4.10;99.90
20155;DHT22;10238;49.556;10.956;2023-12-20T06:37:22;4.20;99.90
20155;DHT22;10238;49.556;10.956;2023-12-20T06:40:10;4.10;99.90
20155;DHT22;10238;49.556;10.956;2023-12-20T06:43:03;4.20;99.90
20155;DHT22;10238;49.556;10.956;2023-12-20T06:46:06;4.10;99.90
20155;DHT22;10238;49.556;10.956;2023-12-20T06:48:53;4.20;99.90
20155;DHT22;10238;49.556;10.956;2023-12-20T06:51:42;4.10;99.90
20155;DHT22;10238;49.556;10.956;2023-12-20T06:54:30;4.20;99.90
20155;DHT22;10238;49.556;10.956;2023-12-20T06:57:20;4.20;99.90
20155;DHT22;10238;49.556;10.956;2023-12-20T07:00:08;4.20;99.90
20155;DHT22;10238;49.556;10.956;2023-12-20T07:02:58;4.20;99.90
20155;DHT22;10238;49.556;10.956;2023-12-20T07:05:45;4.20;99.90
20155;DHT22;10238;49.556;10.956;2023-12-20T07:08:34;4.20;99.90
20155;DHT22;10238;49.556;10.956;2023-12-20T07:11:22;4.20;99.90
20155;DHT22;10238;49.556;10.956;2023-12-20T07:14:10;4.20;99.90
20155;DHT22;10238;49.556;10.956;2023-12-20T07:16:57;4.20;99.90
20155;DHT22;10238;49.556;10.956;2023-12-20T07:19:45;4.20;99.90
20155;DHT22;10238;49.556;10.956;2023-12-20T07:22:33;4.20;99.90
20155;DHT22;10238;49.556;10.956;2023-12-20T07:25:22;4.30;99.90
20155;DHT22;10238;49.556;10.956;2023-12-20T07:28:10;4.30;99.90
20155;DHT22;10238;49.556;10.956;2023-12-20T07:30:58;4.30;99.90
20155;DHT22;10238;49.556;10.956;2023-12-20T07:33:46;4.30;99.90
20155;DHT22;10238;49.556;10.956;2023-12-20T07:36:34;4.30;99.90
20155;DHT22;10238;49.556;10.956;2023-12-20T07:39:21;4.30;99.90
20155;DHT22;10238;49.556;10.956;2023-12-20T07:42:10;4.30;99.90
20155;DHT22;10238;49.556;10.956;2023-12-20T07:44:58;4.40;99.90
20155;DHT22;10238;49.556;10.956;2023-12-20T07:47:46;4.40;99.90
20155;DHT22;10238;49.556;10.956;2023-12-20T07:50:35;4.40;99.90
20155;DHT22;10238;49.556;10.956;2023-12-20T07:53:23;4.40;99.90
20155;DHT22;10238;49.556;10.956;2023-12-20T07:56:14;4.50;99.90
20155;DHT22;10238;49.556;10.956;2023-12-20T07:59:04;4.40;99.90
20155;DHT22;10238;49.556;10.956;2023-12-20T08:01:57;4.50;99.90
20155;DHT22;10238;49.556;10.956;2023-12-20T08:04:46;4.50;99.90
20155;DHT22;10238;49.556;10.956;2023-12-20T08:07:33;4.50;99.90
20155;DHT22;10238;49.556;10.956;2023-12-20T08:10:21;4.50;99.90
20155;DHT22;10238;49.556;10.956;2023-12-20T08:13:08;4.60;99.90
20155;DHT22;10238;49.556;10.956;2023-12-20T08:15:57;4.60;99.90
20155;DHT22;10238;49.556;10.956;2023-12-20T08:18:47;4.60;99.90
20155;DHT22;10238;49.556;10.956;2023-12-20T08:21:35;4.60;99.90
20155;DHT22;10238;49.556;10.956;2023-12-20T08:24:24;4.60;99.90
20155;DHT22;10238;49.556;10.956;2023-12-20T08:27:12;4.60;99.90
20155;DHT22;10238;49.556;10.956;2023-12-20T08:29:59;4.60;99.90
20155;DHT22;10238;49.556;10.956;2023-12-20T08:32:48;4.60;99.90
20155;DHT22;10238;49.556;10.956;2023-12-20T08:35:35;4.60;99.90
20155;DHT22;10238;49.556;10.956;2023-12-20T08:38:24;4.70;99.90
20155;DHT22;10238;49.556;10.956;2023-12-20T08:41:11;4.80;99.90
20155;DHT22;10238;49.556;10.956;2023-12-20T08:43:59;4.80;99.90
20155;DHT22;10238;49.556;10.956;2023-12-20T08:46:47;4.80;99.90
20155;DHT22;10238;49.556;10.956;2023-12-20T08:49:36;4.80;99.90
20155;DHT22;10238;49.556;10.956;2023-12-20T08:52:25;4.80;99.90
20155;DHT22;10238;49.556;10.956;2023-12-20T08:55:13;4.80;99.90
20155;DHT22;10238;49.556;10.956;2023-12-20T08:58:03;4.80;99.90
20155;DHT22;10238;49.556;10.956;2023-12-20T09:00:53;4.80;99.90
20155;DHT22;10238;49.556;10.956;2023-12-20T09:03:40;4.80;99.90
20155;DHT22;10238;49.556;10.956;2023-12-20T09:06:29;4.80;99.90
20155;DHT22;10238;49.556;10.956;2023-12-20T09:09:17;4.80;99.90
20155;DHT22;10238;49.556;10.956;2023-12-20T09:12:05;4.80;99.90
20155;DHT22;10238;49.556;10.956;2023-12-20T09:14:53;4.80;99.90
20155;DHT22;10238;49.556;10.956;2023-12-20T09:17:41;4.80;99.90
20155;DHT22;10238;49.556;10.956;2023-12-20T09:20:30;4.80;99.90
20155;DHT22;10238;49.556;10.956;2023-12-20T09:23:20;4.80;99.90
20155;DHT22;10238;49.556;10.956;2023-12-20T09:26:08;4.80;99.90
20155;DHT22;10238;49.556;10.956;2023-12-20T09:28:55;4.80;99.90
20155;DHT22;10238;49.556;10.956;2023-12-20T09:31:43;4.90;99.90
20155;DHT22;10238;49.556;10.956;2023-12-20T09:34:32;4.90;99.90
20155;DHT22;10238;49.556;10.956;2023-12-20T09:37:20;4.90;99.90
20155;DHT22;10238;49.556;10.956;2023-12-20T09:40:11;5.00;99.90
20155;DHT22;10238;49.556;10.956;2023-12-20T09:43:04;5.00;99.90
20155;DHT22;10238;49.556;10.956;2023-12-20T09:46:00;5.10;99.90
20155;DHT22;10238;49.556;10.956;2023-12-20T09:48:49;5.20;99.90
20155;DHT22;10238;49.556;10.956;2023-12-20T09:51:38;5.20;99.90
20155;DHT22;10238;49.556;10.956;2023-12-20T09:54:28;5.30;99.90
20155;DHT22;10238;49.556;10.956;2023-12-20T09:57:18;5.40;99.90
20155;DHT22;10238;49.556;10.956;2023-12-20T10:00:06;5.40;99.90
20155;DHT22;10238;49.556;10.956;2023-12-20T10:02:57;5.50;99.90
20155;DHT22;10238;49.556;10.956;2023-12-20T10:05:46;5.60;99.90
20155;DHT22;10238;49.556;10.956;2023-12-20T10:08:35;5.60;99.90
20155;DHT22;10238;49.556;10.956;2023-12-20T10:11:23;5.60;99.90
20155;DHT22;10238;49.556;10.956;2023-12-20T10:14:13;5.70;99.90
20155;DHT22;10238;49.556;10.956;2023-12-20T10:17:02;5.70;99.90
20155;DHT22;10238;49.556;10.956;2023-12-20T10:19:50;5.70;99.90
20155;DHT22;10238;49.556;10.956;2023-12-20T10:22:39;5.70;99.90
20155;DHT22;10238;49.556;10.956;2023-12-20T10:25:27;5.70;99.90
20155;DHT22;10238;49.556;10.956;2023-12-20T10:28:16;5.70;99.90
20155;DHT22;10238;49.556;10.956;2023-12-20T10:31:07;5.70;99.90
20155;DHT22;10238;49.556;10.956;2023-12-20T10:33:56;5.60;99.90
20155;DHT22;10238;49.556;10.956;2023-12-20T10:36:45;5.60;99.90
20155;DHT22;10238;49.556;10.956;2023-12-20T10:39:33;5.60;99.90
20155;DHT22;10238;49.556;10.956;2023-12-20T10:42:21;5.60;99.90
20155;DHT22;10238;49.556;10.956;2023-12-20T10:45:10;5.60;99.90
20155;DHT22;10238;49.556;10.956;2023-12-20T10:47:59;5.60;99.90
20155;DHT22;10238;49.556;10.956;2023-12-20T10:50:49;5.60;99.90
20155;DHT22;10238;49.556;10.956;2023-12-20T10:53:39;5.60;99.90
20155;DHT22;10238;49.556;10.956;2023-12-20T10:56:31;5.60;99.90
20155;DHT22;10238;49.556;10.956;2023-12-20T10:59:20;5.70;99.90
20155;DHT22;10238;49.556;10.956;2023-12-20T11:02:10;5.70;99.90
20155;DHT22;10238;49.556;10.956;2023-12-20T11:05:05;5.60;99.90
20155;DHT22;10238;49.556;10.956;2023-12-20T11:08:02;5.60;99.90
20155;DHT22;10238;49.556;10.956;2023-12-20T11:11:02;5.70;99.90
20155;DHT22;10238;49.556;10.956;2023-12-20T11:13:55;5.70;99.90
20155;DHT22;10238;49.556;10.956;2023-12-20T11:16:48;5.70;99.90
20155;DHT22;10238;49.556;10.956;2023-12-20T11:20:05;5.70;99.90
20155;DHT22;10238;49.556;10.956;2023-12-20T11:22:57;5.80;99.90
20155;DHT22;10238;49.556;10.956;2023-12-20T11:25:47;5.80;99.90
20155;DHT22;10238;49.556;10.956;2023-12-20T11:28:35;5.80;99.90
20155;DHT22;10238;49.556;10.956;2023-12-20T11:31:23;5.80;99.90
20155;DHT22;10238;49.556;10.956;2023-12-20T11:34:14;5.80;99.90
20155;DHT22;10238;49.556;10.956;2023-12-20T11:37:03;5.80;99.90
20155;DHT22;10238;49.556;10.956;2023-12-20T11:39:54;5.80;99.90
20155;DHT22;10238;49.556;10.956;2023-12-20T11:42:44;5.80;99.90
20155;DHT22;10238;49.556;10.956;2023-12-20T11:45:33;5.80;99.90
20155;DHT22;10238;49.556;10.956;2023-12-20T11:48:23;5.80;99.90
20155;DHT22;10238;49.556;10.956;2023-12-20T11:51:11;5.80;99.90
20155;DHT22;10238;49.556;10.956;2023-12-20T11:54:01;5.90;99.90
20155;DHT22;10238;49.556;10.956;2023-12-20T11:56:48;5.90;99.90
20155;DHT22;10238;49.556;10.956;2023-12-20T11:59:36;5.90;99.90
20155;DHT22;10238;49.556;10.956;2023-12-20T12:02:24;5.90;99.90
20155;DHT22;10238;49.556;10.956;2023-12-20T12:05:11;6.00;99.90
20155;DHT22;10238;49.556;10.956;2023-12-20T12:08:00;6.00;99.90
20155;DHT22;10238;49.556;10.956;2023-12-20T12:10:48;6.00;99.90
20155;DHT22;10238;49.556;10.956;2023-12-20T12:13:36;6.00;99.90
20155;DHT22;10238;49.556;10.956;2023-12-20T12:16:25;6.10;99.90
20155;DHT22;10238;49.556;10.956;2023-12-20T12:19:20;6.10;99.90
20155;DHT22;10238;49.556;10.956;2023-12-20T12:22:09;6.10;99.90
20155;DHT22;10238;49.556;10.956;2023-12-20T12:25:10;6.10;99.90
20155;DHT22;10238;49.556;10.956;2023-12-20T12:27:59;6.10;99.90
20155;DHT22;10238;49.556;10.956;2023-12-20T12:30:56;6.10;99.90
20155;DHT22;10238;49.556;10.956;2023-12-20T12:33:46;6.10;99.90
20155;DHT22;10238;49.556;10.956;2023-12-20T12:36:34;6.20;99.90
20155;DHT22;10238;49.556;10.956;2023-12-20T12:39:23;6.20;99.90
20155;DHT22;10238;49.556;10.956;2023-12-20T12:42:12;6.30;99.90
20155;DHT22;10238;49.556;10.956;2023-12-20T12:45:02;6.30;99.90
20155;DHT22;10238;49.556;10.956;2023-12-20T12:47:50;6.30;99.90
20155;DHT22;10238;49.556;10.956;2023-12-20T12:50:41;6.30;99.90
20155;DHT22;10238;49.556;10.956;2023-12-20T12:53:29;6.30;99.90
20155;DHT22;10238;49.556;10.956;2023-12-20T12:56:18;6.20;99.90
20155;DHT22;10238;49.556;10.956;2023-12-20T12:59:05;6.20;99.90
20155;DHT22;10238;49.556;10.956;2023-12-20T13:01:55;6.20;99.90
20155;DHT22;10238;49.556;10.956;2023-12-20T13:04:43;6.20;99.90
20155;DHT22;10238;49.556;10.956;2023-12-20T13:07:31;6.20;99.90
20155;DHT22;10238;49.556;10.956;2023-12-20T13:10:19;6.20;99.90
20155;DHT22;10238;49.556;10.956;2023-12-20T13:13:06;6.30;99.90
20155;DHT22;10238;49.556;10.956;2023-12-20T13:15:54;6.30;99.90
20155;DHT22;10238;49.556;10.956;2023-12-20T13:18:43;6.30;99.90
20155;DHT22;10238;49.556;10.956;2023-12-20T13:21:31;6.20;99.90
20155;DHT22;10238;49.556;10.956;2023-12-20T13:24:19;6.20;99.90
20155;DHT22;10238;49.556;10.956;2023-12-20T13:27:06;6.20;99.90
20155;DHT22;10238;49.556;10.956;2023-12-20T13:29:54;6.20;99.90
20155;DHT22;10238;49.556;10.956;2023-12-20T13:32:41;6.10;99.90
20155;DHT22;10238;49.556;10.956;2023-12-20T13:35:31;6.10;99.90
20155;DHT22;10238;49.556;10.956;2023-12-20T13:38:19;6.00;99.90
20155;DHT22;10238;49.556;10.956;2023-12-20T13:41:07;6.00;99.90
20155;DHT22;10238;49.556;10.956;2023-12-20T13:43:54;5.90;99.90
20155;DHT22;10238;49.556;10.956;2023-12-20T13:46:42;5.90;99.90
20155;DHT22;10238;49.556;10.956;2023-12-20T13:49:29;5.90;99.90
20155;DHT22;10238;49.556;10.956;2023-12-20T13:52:18;5.80;99.90
20155;DHT22;10238;49.556;10.956;2023-12-20T13:55:06;5.80;99.90
20155;DHT22;10238;49.556;10.956;2023-12-20T13:57:55;5.70;99.90
20155;DHT22;10238;49.556;10.956;2023-12-20T14:00:44;5.70;99.90
20155;DHT22;10238;49.556;10.956;2023-12-20T14:03:31;5.70;99.90
20155;DHT22;10238;49.556;10.956;2023-12-20T14:06:19;5.70;99.90
20155;DHT22;10238;49.556;10.956;2023-12-20T14:09:08;5.60;99.90
20155;DHT22;10238;49.556;10.956;2023-12-20T14:11:58;5.60;99.90
20155;DHT22;10238;49.556;10.956;2023-12-20T14:14:46;5.50;99.90
20155;DHT22;10238;49.556;10.956;2023-12-20T14:17:33;5.50;99.90
20155;DHT22;10238;49.556;10.956;2023-12-20T14:20:21;5.50;99.90
20155;DHT22;10238;49.556;10.956;2023-12-20T14:23:08;5.50;99.90
20155;DHT22;10238;49.556;10.956;2023-12-20T14:25:58;5.40;99.90
20155;DHT22;10238;49.556;10.956;2023-12-20T14:28:45;5.40;99.90
20155;DHT22;10238;49.556;10.956;2023-12-20T14:31:33;5.40;99.90
20155;DHT22;10238;49.556;10.956;2023-12-20T14:34:21;5.40;99.90
20155;DHT22;10238;49.556;10.956;2023-12-20T14:37:10;5.40;99.90
20155;DHT22;10238;49.556;10.956;2023-12-20T14:39:58;5.40;99.90
20155;DHT22;10238;49.556;10.956;2023-12-20T14:42:47;5.30;99.90
20155;DHT22;10238;49.556;10.956;2023-12-20T14:45:35;5.30;99.90
20155;DHT22;10238;49.556;10.956;2023-12-20T14:48:22;5.30;99.90
20155;DHT22;10238;49.556;10.956;2023-12-20T14:51:09;5.20;99.90
20155;DHT22;10238;49.556;10.956;2023-12-20T14:53:58;5.20;99.90
20155;DHT22;10238;49.556;10.956;2023-12-20T14:56:45;5.10;99.90
20155;DHT22;10238;49.556;10.956;2023-12-20T14:59:34;5.10;99.90
20155;DHT22;10238;49.556;10.956;2023-12-20T15:02:22;5.10;99.90
20155;DHT22;10238;49.556;10.956;2023-12-20T15:05:09;5.10;99.90
20155;DHT22;10238;49.556;10.956;2023-12-20T15:07:57;5.10;99.90
20155;DHT22;10238;49.556;10.956;2023-12-20T15:10:44;5.00;99.90
20155;DHT22;10238;49.556;10.956;2023-12-20T15:13:32;5.00;99.90
20155;DHT22;10238;49.556;10.956;2023-12-20T15:16:22;5.00;99.90
20155;DHT22;10238;49.556;10.956;2023-12-20T15:19:09;5.00;99.90
20155;DHT22;10238;49.556;10.956;2023-12-20T15:21:57;4.90;99.90
20155;DHT22;10238;49.556;10.956;2023-12-20T15:24:45;4.90;99.90
20155;DHT22;10238;49.556;10.956;2023-12-20T15:27:33;4.90;99.90
20155;DHT22;10238;49.556;10.956;2023-12-20T15:30:23;4.90;99.90
20155;DHT22;10238;49.556;10.956;2023-12-20T15:33:12;4.90;99.90
20155;DHT22;10238;49.556;10.956;2023-12-20T15:36:00;4.90;99.90
20155;DHT22;10238;49.556;10.956;2023-12-20T15:38:47;4.90;99.90
20155;DHT22;10238;49.556;10.956;2023-12-20T15:41:35;4.90;99.90
20155;DHT22;10238;49.556;10.956;2023-12-20T15:44:22;4.90;99.90
20155;DHT22;10238;49.556;10.956;2023-12-20T15:47:09;4.90;99.90
20155;DHT22;10238;49.556;10.956;2023-12-20T15:49:58;4.90;99.90
20155;DHT22;10238;49.556;10.956;2023-12-20T15:52:46;4.90;99.90
20155;DHT22;10238;49.556;10.956;2023-12-20T15:55:34;4.90;99.90
20155;DHT22;10238;49.556;10.956;2023-12-20T15:58:21;4.90;99.90
20155;DHT22;10238;49.556;10.956;2023-12-20T16:01:09;4.90;99.90
20155;DHT22;10238;49.556;10.956;2023-12-20T16:03:57;4.80;99.90
20155;DHT22;10238;49.556;10.956;2023-12-20T16:06:47;4.80;99.90
20155;DHT22;10238;49.556;10.956;2023-12-20T16:09:35;4.80;99.90
20155;DHT22;10238;49.556;10.956;2023-12-20T16:12:22;4.80;99.90
20155;DHT22;10238;49.556;10.956;2023-12-20T16:15:10;4.80;99.90
20155;DHT22;10238;49.556;10.956;2023-12-20T16:17:57;4.80;99.90
20155;DHT22;10238;49.556;10.956;2023-12-20T16:20:45;4.80;99.90
20155;DHT22;10238;49.556;10.956;2023-12-20T16:23:34;4.80;99.90
20155;DHT22;10238;49.556;10.956;2023-12-20T16:26:22;4.80;99.90
20155;DHT22;10238;49.556;10.956;2023-12-20T16:29:10;4.80;99.90
20155;DHT22;10238;49.556;10.956;2023-12-20T16:31:58;4.70;99.90
20155;DHT22;10238;49.556;10.956;2023-12-20T16:34:46;4.80;99.90
20155;DHT22;10238;49.556;10.956;2023-12-20T16:37:34;4.70;99.90
20155;DHT22;10238;49.556;10.956;2023-12-20T16:40:26;4.80;99.90
20155;DHT22;10238;49.556;10.956;2023-12-20T16:43:13;4.70;99.90
20155;DHT22;10238;49.556;10.956;2023-12-20T16:46:01;4.80;99.90
20155;DHT22;10238;49.556;10.956;2023-12-20T16:48:52;4.80;99.90
20155;DHT22;10238;49.556;10.956;2023-12-20T16:51:41;4.80;99.90
20155;DHT22;10238;49.556;10.956;2023-12-20T16:54:29;4.80;99.90
20155;DHT22;10238;49.556;10.956;2023-12-20T16:57:19;4.80;99.90
20155;DHT22;10238;49.556;10.956;2023-12-20T17:00:07;4.80;99.90
20155;DHT22;10238;49.556;10.956;2023-12-20T17:02:55;4.80;99.90
20155;DHT22;10238;49.556;10.956;2023-12-20T17:05:43;4.80;99.90
20155;DHT22;10238;49.556;10.956;2023-12-20T17:08:31;4.80;99.90
20155;DHT22;10238;49.556;10.956;2023-12-20T17:11:19;4.80;99.90
20155;DHT22;10238;49.556;10.956;2023-12-20T17:14:11;4.80;99.90
20155;DHT22;10238;49.556;10.956;2023-12-20T17:16:59;4.80;99.90
20155;DHT22;10238;49.556;10.956;2023-12-20T17:19:46;4.80;99.90
20155;DHT22;10238;49.556;10.956;2023-12-20T17:22:34;4.80;99.90
20155;DHT22;10238;49.556;10.956;2023-12-20T17:25:22;4.80;99.90
20155;DHT22;10238;49.556;10.956;2023-12-20T17:28:10;4.80;99.90
20155;DHT22;10238;49.556;10.956;2023-12-20T17:31:03;4.80;99.90
20155;DHT22;10238;49.556;10.956;2023-12-20T17:33:50;4.80;99.90
20155;DHT22;10238;49.556;10.956;2023-12-20T17:36:40;4.80;99.90
20155;DHT22;10238;49.556;10.956;2023-12-20T17:39:28;4.80;99.90
20155;DHT22;10238;49.556;10.956;2023-12-20T17:42:16;4.80;99.90
20155;DHT22;10238;49.556;10.956;2023-12-20T17:45:03;4.80;99.90